sensor_id;sensor_type;location;lat;lon;timestamp;temperature;humidity
13464;DHT22;6804;48.774;9.174;2023-04-06T00:00:34;5.50;91.00
13464;DHT22;6804;48.774;9.174;2023-04-06T00:03:04;5.40;91.40
13464;DHT22;6804;48.774;9.174;2023-04-06T00:05:34;5.50;91.20
13464;DHT22;6804;48.774;9.174;2023-04-06T00:08:02;5.50;91.20
13464;DHT22;6804;48.774;9.174;2023-04-06T00:10:36;5.50;91.20
13464;DHT22;6804;48.774;9.174;2023-04-06T00:13:03;5.50;91.40
13464;DHT22;6804;48.774;9.174;2023-04-06T00:15:37;5.40;91.60
13464;DHT22;6804;48.774;9.174;2023-04-06T00:18:04;5.40;91.60
13464;DHT22;6804;48.774;9.174;2023-04-06T00:20:31;5.30;91.60
13464;DHT22;6804;48.774;9.174;2023-04-06T00:22:59;5.30;91.70
13464;DHT22;6804;48.774;9.174;2023-04-06T00:25:26;5.30;92.00
13464;DHT22;6804;48.774;9.174;2023-04-06T00:27:53;5.30;92.00
13464;DHT22;6804;48.774;9.174;2023-04-06T00:30:21;5.10;92.30
13464;DHT22;6804;48.774;9.174;2023-04-06T00:32:53;5.20;92.60
13464;DHT22;6804;48.774;9.174;2023-04-06T00:35:21;5.20;92.50
13464;DHT22;6804;48.774;9.174;2023-04-06T00:37:55;5.20;92.50
13464;DHT22;6804;48.774;9.174;2023-04-06T00:40:22;5.30;92.40
13464;DHT22;6804;48.774;9.174;2023-04-06T00:42:49;5.30;92.50
13464;DHT22;6804;48.774;9.174;2023-04-06T00:45:19;5.20;92.40
13464;DHT22;6804;48.774;9.174;2023-04-06T00:47:56;5.10;92.90
13464;DHT22;6804;48.774;9.174;2023-04-06T00:50:23;5.10;93.20
13464;DHT22;6804;48.774;9.174;2023-04-06T00:52:52;5.10;93.10
13464;DHT22;6804;48.774;9.174;2023-04-06T00:55:22;5.20;93.10
13464;DHT22;6804;48.774;9.174;2023-04-06T00:57:49;5.20;92.90
13464;DHT22;6804;48.774;9.174;2023-04-06T01:00:17;5.10;93.10
13464;DHT22;6804;48.774;9.174;2023-04-06T01:02:45;5.30;93.20
13464;DHT22;6804;48.774;9.174;2023-04-06T01:05:15;5.30;93.10
13464;DHT22;6804;48.774;9.174;2023-04-06T01:07:42;5.40;92.50
13464;DHT22;6804;48.774;9.174;2023-04-06T01:10:23;5.50;92.50
13464;DHT22;6804;48.774;9.174;2023-04-06T01:12:53;5.40;92.40
13464;DHT22;6804;48.774;9.174;2023-04-06T01:15:20;5.30;92.60
13464;DHT22;6804;48.774;9.174;2023-04-06T01:17:48;5.20;92.70
13464;DHT22;6804;48.774;9.174;2023-04-06T01:20:17;5.20;92.90
13464;DHT22;6804;48.774;9.174;2023-04-06T01:22:46;5.00;93.10
13464;DHT22;6804;48.774;9.174;2023-04-06T01:25:14;5.10;93.20
13464;DHT22;6804;48.774;9.174;2023-04-06T01:27:43;5.10;92.90
13464;DHT22;6804;48.774;9.174;2023-04-06T01:30:14;5.20;92.70
13464;DHT22;6804;48.774;9.174;2023-04-06T01:32:43;5.10;92.80
13464;DHT22;6804;48.774;9.174;2023-04-06T01:35:11;5.10;92.80
13464;DHT22;6804;48.774;9.174;2023-04-06T01:37:47;5.10;92.80
13464;DHT22;6804;48.774;9.174;2023-04-06T01:40:14;5.10;92.80
13464;DHT22;6804;48.774;9.174;2023-04-06T01:42:41;5.00;92.90
13464;DHT22;6804;48.774;9.174;2023-04-06T01:45:12;5.00;93.00
13464;DHT22;6804;48.774;9.174;2023-04-06T01:47:44;5.10;93.00
13464;DHT22;6804;48.774;9.174;2023-04-06T01:50:12;5.00;93.00
13464;DHT22;6804;48.774;9.174;2023-04-06T01:52:39;5.10;92.90
13464;DHT22;6804;48.774;9.174;2023-04-06T01:55:08;5.00;93.00
13464;DHT22;6804;48.774;9.174;2023-04-06T01:57:36;5.10;93.00
13464;DHT22;6804;48.774;9.174;2023-04-06T02:00:07;5.00;93.10
13464;DHT22;6804;48.774;9.174;2023-04-06T02:02:35;5.00;93.20
13464;DHT22;6804;48.774;9.174;2023-04-06T02:05:02;4.90;93.60
13464;DHT22;6804;48.774;9.174;2023-04-06T02:07:30;4.90;93.20
13464;DHT22;6804;48.774;9.174;2023-04-06T02:09:57;4.80;93.60
13464;DHT22;6804;48.774;9.174;2023-04-06T02:12:28;4.80;93.70
13464;DHT22;6804;48.774;9.174;2023-04-06T02:14:56;4.70;93.80
13464;DHT22;6804;48.774;9.174;2023-04-06T02:17:23;4.70;94.20
13464;DHT22;6804;48.774;9.174;2023-04-06T02:19:51;4.70;94.00
13464;DHT22;6804;48.774;9.174;2023-04-06T02:22:18;4.70;93.90
13464;DHT22;6804;48.774;9.174;2023-04-06T02:24:46;4.60;94.10
13464;DHT22;6804;48.774;9.174;2023-04-06T02:27:17;4.60;94.20
13464;DHT22;6804;48.774;9.174;2023-04-06T02:29:46;4.60;94.20
13464;DHT22;6804;48.774;9.174;2023-04-06T02:32:19;4.60;94.30
13464;DHT22;6804;48.774;9.174;2023-04-06T02:34:46;4.60;94.20
13464;DHT22;6804;48.774;9.174;2023-04-06T02:37:21;4.60;94.20
13464;DHT22;6804;48.774;9.174;2023-04-06T02:39:50;4.60;94.20
13464;DHT22;6804;48.774;9.174;2023-04-06T02:42:17;4.70;94.20
13464;DHT22;6804;48.774;9.174;2023-04-06T02:44:49;4.60;94.40
13464;DHT22;6804;48.774;9.174;2023-04-06T02:47:16;4.70;94.20
13464;DHT22;6804;48.774;9.174;2023-04-06T02:49:44;4.70;94.20
13464;DHT22;6804;48.774;9.174;2023-04-06T02:52:11;4.70;94.30
13464;DHT22;6804;48.774;9.174;2023-04-06T02:54:39;4.70;94.40
13464;DHT22;6804;48.774;9.174;2023-04-06T02:57:07;4.70;94.30
13464;DHT22;6804;48.774;9.174;2023-04-06T02:59:35;4.70;94.30
13464;DHT22;6804;48.774;9.174;2023-04-06T03:02:03;4.60;94.30
13464;DHT22;6804;48.774;9.174;2023-04-06T03:04:31;4.70;94.40
13464;DHT22;6804;48.774;9.174;2023-04-06T03:06:58;4.70;94.50
13464;DHT22;6804;48.774;9.174;2023-04-06T03:09:26;4.70;94.20
13464;DHT22;6804;48.774;9.174;2023-04-06T03:11:54;4.70;94.40
13464;DHT22;6804;48.774;9.174;2023-04-06T03:14:23;4.90;94.50
13464;DHT22;6804;48.774;9.174;2023-04-06T03:16:50;4.80;94.00
13464;DHT22;6804;48.774;9.174;2023-04-06T03:19:19;4.80;94.00
13464;DHT22;6804;48.774;9.174;2023-04-06T03:21:49;4.80;94.30
13464;DHT22;6804;48.774;9.174;2023-04-06T03:24:18;4.70;94.50
13464;DHT22;6804;48.774;9.174;2023-04-06T03:26:48;4.70;94.20
13464;DHT22;6804;48.774;9.174;2023-04-06T03:29:16;4.70;94.20
13464;DHT22;6804;48.774;9.174;2023-04-06T03:31:44;4.60;94.30
13464;DHT22;6804;48.774;9.174;2023-04-06T03:34:11;4.60;94.40
13464;DHT22;6804;48.774;9.174;2023-04-06T03:36:40;4.60;94.60
13464;DHT22;6804;48.774;9.174;2023-04-06T03:39:07;4.60;94.60
13464;DHT22;6804;48.774;9.174;2023-04-06T03:41:35;4.50;94.60
13464;DHT22;6804;48.774;9.174;2023-04-06T03:44:02;4.40;94.80
13464;DHT22;6804;48.774;9.174;2023-04-06T03:46:30;4.30;95.00
13464;DHT22;6804;48.774;9.174;2023-04-06T03:48:57;4.30;95.40
13464;DHT22;6804;48.774;9.174;2023-04-06T03:51:30;4.30;95.30
13464;DHT22;6804;48.774;9.174;2023-04-06T03:53:59;4.40;94.90
13464;DHT22;6804;48.774;9.174;2023-04-06T03:56:30;4.40;95.10
13464;DHT22;6804;48.774;9.174;2023-04-06T03:58:59;4.40;95.00
13464;DHT22;6804;48.774;9.174;2023-04-06T04:01:28;4.40;94.90
13464;DHT22;6804;48.774;9.174;2023-04-06T04:03:55;4.40;94.80
13464;DHT22;6804;48.774;9.174;2023-04-06T04:06:25;4.30;95.00
13464;DHT22;6804;48.774;9.174;2023-04-06T04:08:54;4.20;95.20
13464;DHT22;6804;48.774;9.174;2023-04-06T04:11:23;4.30;95.30
13464;DHT22;6804;48.774;9.174;2023-04-06T04:13:51;4.30;95.20
13464;DHT22;6804;48.774;9.174;2023-04-06T04:16:18;4.30;95.10
13464;DHT22;6804;48.774;9.174;2023-04-06T04:18:46;4.20;95.10
13464;DHT22;6804;48.774;9.174;2023-04-06T04:21:19;4.20;95.50
13464;DHT22;6804;48.774;9.174;2023-04-06T04:23:47;4.20;95.70
13464;DHT22;6804;48.774;9.174;2023-04-06T04:26:14;4.20;95.50
13464;DHT22;6804;48.774;9.174;2023-04-06T04:28:43;4.30;95.40
13464;DHT22;6804;48.774;9.174;2023-04-06T04:31:10;4.30;95.20
13464;DHT22;6804;48.774;9.174;2023-04-06T04:33:41;4.40;95.00
13464;DHT22;6804;48.774;9.174;2023-04-06T04:36:11;4.40;95.20
13464;DHT22;6804;48.774;9.174;2023-04-06T04:38:39;4.40;95.10
13464;DHT22;6804;48.774;9.174;2023-04-06T04:41:06;4.30;95.20
13464;DHT22;6804;48.774;9.174;2023-04-06T04:43:36;4.40;95.30
13464;DHT22;6804;48.774;9.174;2023-04-06T04:46:06;4.30;95.10
13464;DHT22;6804;48.774;9.174;2023-04-06T04:48:33;4.20;95.20
13464;DHT22;6804;48.774;9.174;2023-04-06T04:51:01;4.30;95.60
13464;DHT22;6804;48.774;9.174;2023-04-06T04:53:31;4.30;95.20
13464;DHT22;6804;48.774;9.174;2023-04-06T04:55:58;4.30;95.30
13464;DHT22;6804;48.774;9.174;2023-04-06T04:58:29;4.20;95.20
13464;DHT22;6804;48.774;9.174;2023-04-06T05:00:57;4.10;95.50
13464;DHT22;6804;48.774;9.174;2023-04-06T05:03:28;4.10;95.50
13464;DHT22;6804;48.774;9.174;2023-04-06T05:05:56;4.00;95.80
13464;DHT22;6804;48.774;9.174;2023-04-06T05:08:24;4.10;96.10
13464;DHT22;6804;48.774;9.174;2023-04-06T05:10:51;4.20;95.70
13464;DHT22;6804;48.774;9.174;2023-04-06T05:13:22;4.20;96.00
13464;DHT22;6804;48.774;9.174;2023-04-06T05:15:50;4.20;96.00
13464;DHT22;6804;48.774;9.174;2023-04-06T05:18:18;4.10;95.90
13464;DHT22;6804;48.774;9.174;2023-04-06T05:20:50;4.00;96.30
13464;DHT22;6804;48.774;9.174;2023-04-06T05:23:18;4.20;96.70
13464;DHT22;6804;48.774;9.174;2023-04-06T05:25:52;4.40;96.40
13464;DHT22;6804;48.774;9.174;2023-04-06T05:28:22;4.60;96.30
13464;DHT22;6804;48.774;9.174;2023-04-06T05:30:50;4.70;95.70
13464;DHT22;6804;48.774;9.174;2023-04-06T05:33:17;4.90;95.80
13464;DHT22;6804;48.774;9.174;2023-04-06T05:35:45;5.10;95.70
13464;DHT22;6804;48.774;9.174;2023-04-06T05:38:14;5.30;95.30
13464;DHT22;6804;48.774;9.174;2023-04-06T05:40:42;5.50;95.00
13464;DHT22;6804;48.774;9.174;2023-04-06T05:43:09;5.70;94.90
13464;DHT22;6804;48.774;9.174;2023-04-06T05:45:38;5.90;94.40
13464;DHT22;6804;48.774;9.174;2023-04-06T05:48:08;6.10;93.80
13464;DHT22;6804;48.774;9.174;2023-04-06T05:50:36;6.30;94.10
13464;DHT22;6804;48.774;9.174;2023-04-06T05:53:03;6.40;93.40
13464;DHT22;6804;48.774;9.174;2023-04-06T05:55:32;6.60;93.10
13464;DHT22;6804;48.774;9.174;2023-04-06T05:58:03;6.60;93.00
13464;DHT22;6804;48.774;9.174;2023-04-06T06:00:33;6.30;94.10
13464;DHT22;6804;48.774;9.174;2023-04-06T06:03:01;6.40;93.80
13464;DHT22;6804;48.774;9.174;2023-04-06T06:05:34;6.60;93.60
13464;DHT22;6804;48.774;9.174;2023-04-06T06:08:04;6.80;93.50
13464;DHT22;6804;48.774;9.174;2023-04-06T06:10:34;6.70;92.80
13464;DHT22;6804;48.774;9.174;2023-04-06T06:13:02;6.80;92.70
13464;DHT22;6804;48.774;9.174;2023-04-06T06:15:29;6.70;92.60
13464;DHT22;6804;48.774;9.174;2023-04-06T06:17:57;6.60;93.20
13464;DHT22;6804;48.774;9.174;2023-04-06T06:20:25;6.60;92.80
13464;DHT22;6804;48.774;9.174;2023-04-06T06:22:55;6.80;93.60
13464;DHT22;6804;48.774;9.174;2023-04-06T06:25:23;7.00;93.30
13464;DHT22;6804;48.774;9.174;2023-04-06T06:27:55;7.40;93.10
13464;DHT22;6804;48.774;9.174;2023-04-06T06:30:23;7.50;91.90
13464;DHT22;6804;48.774;9.174;2023-04-06T06:32:51;7.30;92.90
13464;DHT22;6804;48.774;9.174;2023-04-06T06:35:18;7.40;94.10
13464;DHT22;6804;48.774;9.174;2023-04-06T06:37:48;7.50;93.00
13464;DHT22;6804;48.774;9.174;2023-04-06T06:40:16;7.50;93.00
13464;DHT22;6804;48.774;9.174;2023-04-06T06:42:44;7.80;93.60
13464;DHT22;6804;48.774;9.174;2023-04-06T06:45:13;8.00;92.30
13464;DHT22;6804;48.774;9.174;2023-04-06T06:47:41;8.10;92.20
13464;DHT22;6804;48.774;9.174;2023-04-06T06:50:09;8.20;92.20
13464;DHT22;6804;48.774;9.174;2023-04-06T06:52:39;8.20;92.20
13464;DHT22;6804;48.774;9.174;2023-04-06T06:55:09;8.20;92.00
13464;DHT22;6804;48.774;9.174;2023-04-06T06:57:36;8.30;91.90
13464;DHT22;6804;48.774;9.174;2023-04-06T07:00:05;8.30;91.70
13464;DHT22;6804;48.774;9.174;2023-04-06T07:02:36;8.20;92.00
13464;DHT22;6804;48.774;9.174;2023-04-06T07:05:04;8.00;92.10
13464;DHT22;6804;48.774;9.174;2023-04-06T07:07:35;8.10;92.40
13464;DHT22;6804;48.774;9.174;2023-04-06T07:10:03;8.20;91.90
13464;DHT22;6804;48.774;9.174;2023-04-06T07:12:31;8.10;91.80
13464;DHT22;6804;48.774;9.174;2023-04-06T07:14:59;8.10;92.40
13464;DHT22;6804;48.774;9.174;2023-04-06T07:17:26;8.20;92.20
13464;DHT22;6804;48.774;9.174;2023-04-06T07:19:55;8.00;92.30
13464;DHT22;6804;48.774;9.174;2023-04-06T07:22:26;8.10;93.20
13464;DHT22;6804;48.774;9.174;2023-04-06T07:24:56;8.50;92.40
13464;DHT22;6804;48.774;9.174;2023-04-06T07:27:27;9.00;92.50
13464;DHT22;6804;48.774;9.174;2023-04-06T07:29:56;9.40;91.80
13464;DHT22;6804;48.774;9.174;2023-04-06T07:32:36;9.80;90.10
13464;DHT22;6804;48.774;9.174;2023-04-06T07:35:09;9.70;89.80
13464;DHT22;6804;48.774;9.174;2023-04-06T07:37:36;9.50;89.60
13464;DHT22;6804;48.774;9.174;2023-04-06T07:40:06;9.30;90.40
13464;DHT22;6804;48.774;9.174;2023-04-06T07:42:36;9.30;90.20
13464;DHT22;6804;48.774;9.174;2023-04-06T07:45:07;9.20;90.80
13464;DHT22;6804;48.774;9.174;2023-04-06T07:47:35;9.40;90.60
13464;DHT22;6804;48.774;9.174;2023-04-06T07:50:03;9.60;90.60
13464;DHT22;6804;48.774;9.174;2023-04-06T07:52:34;9.90;90.70
13464;DHT22;6804;48.774;9.174;2023-04-06T07:55:02;10.30;88.20
13464;DHT22;6804;48.774;9.174;2023-04-06T07:57:32;10.20;89.00
13464;DHT22;6804;48.774;9.174;2023-04-06T08:00:04;9.90;90.10
13464;DHT22;6804;48.774;9.174;2023-04-06T08:02:36;9.70;90.70
13464;DHT22;6804;48.774;9.174;2023-04-06T08:05:04;9.80;90.10
13464;DHT22;6804;48.774;9.174;2023-04-06T08:07:34;10.10;89.40
13464;DHT22;6804;48.774;9.174;2023-04-06T08:10:03;10.00;88.80
13464;DHT22;6804;48.774;9.174;2023-04-06T08:12:32;9.90;90.00
13464;DHT22;6804;48.774;9.174;2023-04-06T08:15:01;9.40;90.60
13464;DHT22;6804;48.774;9.174;2023-04-06T08:17:29;9.40;91.10
13464;DHT22;6804;48.774;9.174;2023-04-06T08:19:59;9.50;91.50
13464;DHT22;6804;48.774;9.174;2023-04-06T08:22:29;9.90;90.70
13464;DHT22;6804;48.774;9.174;2023-04-06T08:24:58;10.20;89.20
13464;DHT22;6804;48.774;9.174;2023-04-06T08:27:26;10.30;89.90
13464;DHT22;6804;48.774;9.174;2023-04-06T08:29:57;10.50;89.50
13464;DHT22;6804;48.774;9.174;2023-04-06T08:32:27;10.70;89.40
13464;DHT22;6804;48.774;9.174;2023-04-06T08:34:58;11.30;90.00
13464;DHT22;6804;48.774;9.174;2023-04-06T08:37:28;11.70;87.60
13464;DHT22;6804;48.774;9.174;2023-04-06T08:39:58;11.90;85.60
13464;DHT22;6804;48.774;9.174;2023-04-06T08:42:28;12.00;85.60
13464;DHT22;6804;48.774;9.174;2023-04-06T08:44:59;12.10;84.40
13464;DHT22;6804;48.774;9.174;2023-04-06T08:47:28;12.10;85.40
13464;DHT22;6804;48.774;9.174;2023-04-06T08:49:58;12.40;85.00
13464;DHT22;6804;48.774;9.174;2023-04-06T08:52:32;12.80;85.70
13464;DHT22;6804;48.774;9.174;2023-04-06T08:55:01;13.00;83.00
13464;DHT22;6804;48.774;9.174;2023-04-06T08:57:29;13.20;81.90
13464;DHT22;6804;48.774;9.174;2023-04-06T09:00:01;13.40;83.30
13464;DHT22;6804;48.774;9.174;2023-04-06T09:02:29;13.70;82.30
13464;DHT22;6804;48.774;9.174;2023-04-06T09:04:57;13.90;79.60
13464;DHT22;6804;48.774;9.174;2023-04-06T09:07:28;13.90;78.80
13464;DHT22;6804;48.774;9.174;2023-04-06T09:10:01;14.10;78.60
13464;DHT22;6804;48.774;9.174;2023-04-06T09:12:30;14.40;76.80
13464;DHT22;6804;48.774;9.174;2023-04-06T09:14:58;14.60;74.20
13464;DHT22;6804;48.774;9.174;2023-04-06T09:17:30;14.70;74.20
13464;DHT22;6804;48.774;9.174;2023-04-06T09:20:00;14.50;74.00
13464;DHT22;6804;48.774;9.174;2023-04-06T09:22:38;14.60;73.90
13464;DHT22;6804;48.774;9.174;2023-04-06T09:25:18;14.90;74.40
13464;DHT22;6804;48.774;9.174;2023-04-06T09:27:58;15.00;71.50
13464;DHT22;6804;48.774;9.174;2023-04-06T09:30:26;15.00;72.10
13464;DHT22;6804;48.774;9.174;2023-04-06T09:32:55;15.10;73.20
13464;DHT22;6804;48.774;9.174;2023-04-06T09:35:23;15.20;72.50
13464;DHT22;6804;48.774;9.174;2023-04-06T09:37:52;15.30;72.40
13464;DHT22;6804;48.774;9.174;2023-04-06T09:40:22;15.40;71.20
13464;DHT22;6804;48.774;9.174;2023-04-06T09:42:51;15.30;70.80
13464;DHT22;6804;48.774;9.174;2023-04-06T09:45:23;15.40;70.70
13464;DHT22;6804;48.774;9.174;2023-04-06T09:47:52;15.50;68.40
13464;DHT22;6804;48.774;9.174;2023-04-06T09:50:22;15.30;68.80
13464;DHT22;6804;48.774;9.174;2023-04-06T09:52:51;15.40;68.00
13464;DHT22;6804;48.774;9.174;2023-04-06T09:55:24;15.30;66.80
13464;DHT22;6804;48.774;9.174;2023-04-06T09:58:00;15.40;68.10
13464;DHT22;6804;48.774;9.174;2023-04-06T10:00:32;15.60;67.50
13464;DHT22;6804;48.774;9.174;2023-04-06T10:03:11;15.80;67.80
13464;DHT22;6804;48.774;9.174;2023-04-06T10:05:52;16.00;63.80
13464;DHT22;6804;48.774;9.174;2023-04-06T10:08:26;15.70;63.60
13464;DHT22;6804;48.774;9.174;2023-04-06T10:10:56;15.60;63.00
13464;DHT22;6804;48.774;9.174;2023-04-06T10:13:29;15.50;62.70
13464;DHT22;6804;48.774;9.174;2023-04-06T10:16:00;14.40;61.90
13464;DHT22;6804;48.774;9.174;2023-04-06T10:18:31;13.70;63.20
13464;DHT22;6804;48.774;9.174;2023-04-06T10:21:06;13.70;64.10
13464;DHT22;6804;48.774;9.174;2023-04-06T10:23:37;14.00;65.30
13464;DHT22;6804;48.774;9.174;2023-04-06T10:26:13;14.40;64.30
13464;DHT22;6804;48.774;9.174;2023-04-06T10:28:43;14.40;61.60
13464;DHT22;6804;48.774;9.174;2023-04-06T10:31:11;14.40;63.20
13464;DHT22;6804;48.774;9.174;2023-04-06T10:33:39;14.70;63.00
13464;DHT22;6804;48.774;9.174;2023-04-06T10:36:11;14.80;61.60
13464;DHT22;6804;48.774;9.174;2023-04-06T10:38:42;15.00;60.90
13464;DHT22;6804;48.774;9.174;2023-04-06T10:41:12;14.50;61.90
13464;DHT22;6804;48.774;9.174;2023-04-06T10:43:42;14.30;61.60
13464;DHT22;6804;48.774;9.174;2023-04-06T10:46:11;14.40;62.90
13464;DHT22;6804;48.774;9.174;2023-04-06T10:48:42;14.80;62.00
13464;DHT22;6804;48.774;9.174;2023-04-06T10:51:13;15.20;61.70
13464;DHT22;6804;48.774;9.174;2023-04-06T10:53:42;15.60;62.00
13464;DHT22;6804;48.774;9.174;2023-04-06T10:56:14;15.80;60.20
13464;DHT22;6804;48.774;9.174;2023-04-06T10:58:45;16.00;60.50
13464;DHT22;6804;48.774;9.174;2023-04-06T11:01:15;16.00;58.20
13464;DHT22;6804;48.774;9.174;2023-04-06T11:03:44;15.60;58.70
13464;DHT22;6804;48.774;9.174;2023-04-06T11:06:18;15.70;59.80
13464;DHT22;6804;48.774;9.174;2023-04-06T11:08:50;15.80;57.90
13464;DHT22;6804;48.774;9.174;2023-04-06T11:11:21;15.50;57.50
13464;DHT22;6804;48.774;9.174;2023-04-06T11:13:52;14.60;58.50
13464;DHT22;6804;48.774;9.174;2023-04-06T11:16:24;13.70;59.70
13464;DHT22;6804;48.774;9.174;2023-04-06T11:18:54;13.60;60.60
13464;DHT22;6804;48.774;9.174;2023-04-06T11:21:36;13.40;60.40
13464;DHT22;6804;48.774;9.174;2023-04-06T11:24:06;13.30;60.50
13464;DHT22;6804;48.774;9.174;2023-04-06T11:26:39;13.60;62.70
13464;DHT22;6804;48.774;9.174;2023-04-06T11:29:14;13.90;61.30
13464;DHT22;6804;48.774;9.174;2023-04-06T11:31:45;14.10;60.20
13464;DHT22;6804;48.774;9.174;2023-04-06T11:34:16;14.30;60.00
13464;DHT22;6804;48.774;9.174;2023-04-06T11:36:47;14.40;59.30
13464;DHT22;6804;48.774;9.174;2023-04-06T11:39:22;14.30;59.70
13464;DHT22;6804;48.774;9.174;2023-04-06T11:41:58;14.70;61.60
13464;DHT22;6804;48.774;9.174;2023-04-06T11:44:35;15.00;59.70
13464;DHT22;6804;48.774;9.174;2023-04-06T11:47:05;15.40;60.40
13464;DHT22;6804;48.774;9.174;2023-04-06T11:49:37;15.60;57.70
13464;DHT22;6804;48.774;9.174;2023-04-06T11:52:15;15.60;58.60
13464;DHT22;6804;48.774;9.174;2023-04-06T11:54:43;15.70;58.20
13464;DHT22;6804;48.774;9.174;2023-04-06T11:57:16;15.90;57.60
13464;DHT22;6804;48.774;9.174;2023-04-06T11:59:45;15.60;56.70
13464;DHT22;6804;48.774;9.174;2023-04-06T12:02:13;15.10;57.80
13464;DHT22;6804;48.774;9.174;2023-04-06T12:04:46;15.20;58.00
13464;DHT22;6804;48.774;9.174;2023-04-06T12:07:14;15.60;59.70
13464;DHT22;6804;48.774;9.174;2023-04-06T12:09:43;15.90;57.90
13464;DHT22;6804;48.774;9.174;2023-04-06T12:12:15;16.10;56.40
13464;DHT22;6804;48.774;9.174;2023-04-06T12:14:46;16.10;56.50
13464;DHT22;6804;48.774;9.174;2023-04-06T12:17:14;15.20;56.50
13464;DHT22;6804;48.774;9.174;2023-04-06T12:19:45;14.60;57.50
13464;DHT22;6804;48.774;9.174;2023-04-06T12:22:15;14.40;58.40
13464;DHT22;6804;48.774;9.174;2023-04-06T12:24:43;14.80;60.10
13464;DHT22;6804;48.774;9.174;2023-04-06T12:27:11;15.20;58.00
13464;DHT22;6804;48.774;9.174;2023-04-06T12:29:44;15.10;57.00
13464;DHT22;6804;48.774;9.174;2023-04-06T12:32:12;15.00;57.40
13464;DHT22;6804;48.774;9.174;2023-04-06T12:34:45;15.30;58.70
13464;DHT22;6804;48.774;9.174;2023-04-06T12:37:13;15.50;56.50
13464;DHT22;6804;48.774;9.174;2023-04-06T12:39:41;15.50;56.20
13464;DHT22;6804;48.774;9.174;2023-04-06T12:42:10;15.50;56.70
13464;DHT22;6804;48.774;9.174;2023-04-06T12:44:46;15.70;56.40
13464;DHT22;6804;48.774;9.174;2023-04-06T12:47:14;15.20;56.10
13464;DHT22;6804;48.774;9.174;2023-04-06T12:49:46;15.10;57.00
13464;DHT22;6804;48.774;9.174;2023-04-06T12:52:16;15.40;57.10
13464;DHT22;6804;48.774;9.174;2023-04-06T12:54:46;15.40;57.70
13464;DHT22;6804;48.774;9.174;2023-04-06T12:57:15;15.70;58.60
13464;DHT22;6804;48.774;9.174;2023-04-06T12:59:45;16.00;57.80
13464;DHT22;6804;48.774;9.174;2023-04-06T13:02:16;16.30;57.30
13464;DHT22;6804;48.774;9.174;2023-04-06T13:04:46;16.60;56.80
13464;DHT22;6804;48.774;9.174;2023-04-06T13:07:16;16.70;56.50
13464;DHT22;6804;48.774;9.174;2023-04-06T13:09:46;16.60;54.20
13464;DHT22;6804;48.774;9.174;2023-04-06T13:12:15;16.40;55.50
13464;DHT22;6804;48.774;9.174;2023-04-06T13:14:48;16.50;55.50
13464;DHT22;6804;48.774;9.174;2023-04-06T13:17:18;16.50;55.60
13464;DHT22;6804;48.774;9.174;2023-04-06T13:19:46;16.60;55.60
13464;DHT22;6804;48.774;9.174;2023-04-06T13:22:16;16.60;55.90
13464;DHT22;6804;48.774;9.174;2023-04-06T13:24:45;16.40;55.00
13464;DHT22;6804;48.774;9.174;2023-04-06T13:27:13;16.40;55.20
13464;DHT22;6804;48.774;9.174;2023-04-06T13:29:41;16.50;55.60
13464;DHT22;6804;48.774;9.174;2023-04-06T13:32:11;16.50;54.50
13464;DHT22;6804;48.774;9.174;2023-04-06T13:34:38;16.50;54.80
13464;DHT22;6804;48.774;9.174;2023-04-06T13:37:11;16.50;54.20
13464;DHT22;6804;48.774;9.174;2023-04-06T13:39:39;16.60;55.10
13464;DHT22;6804;48.774;9.174;2023-04-06T13:42:08;16.80;55.00
13464;DHT22;6804;48.774;9.174;2023-04-06T13:44:36;17.00;53.50
13464;DHT22;6804;48.774;9.174;2023-04-06T13:47:06;17.20;53.20
13464;DHT22;6804;48.774;9.174;2023-04-06T13:49:37;17.30;53.70
13464;DHT22;6804;48.774;9.174;2023-04-06T13:52:05;17.20;52.00
13464;DHT22;6804;48.774;9.174;2023-04-06T13:54:33;17.00;52.40
13464;DHT22;6804;48.774;9.174;2023-04-06T13:57:02;16.00;52.40
13464;DHT22;6804;48.774;9.174;2023-04-06T13:59:34;15.30;53.90
13464;DHT22;6804;48.774;9.174;2023-04-06T14:02:05;15.20;54.50
13464;DHT22;6804;48.774;9.174;2023-04-06T14:04:36;15.20;55.70
13464;DHT22;6804;48.774;9.174;2023-04-06T14:07:07;15.40;55.60
13464;DHT22;6804;48.774;9.174;2023-04-06T14:09:38;15.50;54.60
13464;DHT22;6804;48.774;9.174;2023-04-06T14:12:06;15.70;55.30
13464;DHT22;6804;48.774;9.174;2023-04-06T14:14:37;15.90;54.90
13464;DHT22;6804;48.774;9.174;2023-04-06T14:17:07;16.00;53.80
13464;DHT22;6804;48.774;9.174;2023-04-06T14:19:37;16.10;54.40
13464;DHT22;6804;48.774;9.174;2023-04-06T14:22:06;16.30;54.80
13464;DHT22;6804;48.774;9.174;2023-04-06T14:24:34;16.30;52.80
13464;DHT22;6804;48.774;9.174;2023-04-06T14:27:07;16.20;52.70
13464;DHT22;6804;48.774;9.174;2023-04-06T14:29:35;15.50;53.10
13464;DHT22;6804;48.774;9.174;2023-04-06T14:32:03;15.00;54.80
13464;DHT22;6804;48.774;9.174;2023-04-06T14:34:31;15.10;55.10
13464;DHT22;6804;48.774;9.174;2023-04-06T14:37:01;15.40;55.40
13464;DHT22;6804;48.774;9.174;2023-04-06T14:39:29;15.50;54.10
13464;DHT22;6804;48.774;9.174;2023-04-06T14:41:59;15.70;55.00
13464;DHT22;6804;48.774;9.174;2023-04-06T14:44:32;15.70;53.80
13464;DHT22;6804;48.774;9.174;2023-04-06T14:47:01;15.80;54.50
13464;DHT22;6804;48.774;9.174;2023-04-06T14:49:30;15.80;54.10
13464;DHT22;6804;48.774;9.174;2023-04-06T14:52:01;16.00;54.20
13464;DHT22;6804;48.774;9.174;2023-04-06T14:54:29;16.00;54.20
13464;DHT22;6804;48.774;9.174;2023-04-06T14:56:59;16.00;54.40
13464;DHT22;6804;48.774;9.174;2023-04-06T14:59:28;15.90;52.60
13464;DHT22;6804;48.774;9.174;2023-04-06T15:01:58;15.50;53.60
13464;DHT22;6804;48.774;9.174;2023-04-06T15:04:27;15.10;53.60
13464;DHT22;6804;48.774;9.174;2023-04-06T15:06:55;14.80;54.10
13464;DHT22;6804;48.774;9.174;2023-04-06T15:09:28;14.40;53.90
13464;DHT22;6804;48.774;9.174;2023-04-06T15:11:56;14.50;54.70
13464;DHT22;6804;48.774;9.174;2023-04-06T15:14:26;14.40;54.50
13464;DHT22;6804;48.774;9.174;2023-04-06T15:17:00;14.20;55.00
13464;DHT22;6804;48.774;9.174;2023-04-06T15:19:30;14.30;54.80
13464;DHT22;6804;48.774;9.174;2023-04-06T15:21:58;14.20;55.50
13464;DHT22;6804;48.774;9.174;2023-04-06T15:24:30;14.30;54.90
13464;DHT22;6804;48.774;9.174;2023-04-06T15:26:58;14.40;55.20
13464;DHT22;6804;48.774;9.174;2023-04-06T15:29:27;14.50;55.40
13464;DHT22;6804;48.774;9.174;2023-04-06T15:31:55;14.60;54.90
13464;DHT22;6804;48.774;9.174;2023-04-06T15:34:23;14.70;54.90
13464;DHT22;6804;48.774;9.174;2023-04-06T15:36:51;14.70;55.20
13464;DHT22;6804;48.774;9.174;2023-04-06T15:39:22;14.90;55.20
13464;DHT22;6804;48.774;9.174;2023-04-06T15:41:52;15.00;55.80
13464;DHT22;6804;48.774;9.174;2023-04-06T15:44:19;15.10;55.40
13464;DHT22;6804;48.774;9.174;2023-04-06T15:46:50;15.20;55.90
13464;DHT22;6804;48.774;9.174;2023-04-06T15:49:19;15.20;56.10
13464;DHT22;6804;48.774;9.174;2023-04-06T15:51:47;15.30;55.20
13464;DHT22;6804;48.774;9.174;2023-04-06T15:54:15;15.20;55.00
13464;DHT22;6804;48.774;9.174;2023-04-06T15:56:45;15.20;55.40
13464;DHT22;6804;48.774;9.174;2023-04-06T15:59:14;15.20;55.10
13464;DHT22;6804;48.774;9.174;2023-04-06T16:01:41;15.20;55.60
13464;DHT22;6804;48.774;9.174;2023-04-06T16:04:10;15.10;54.20
13464;DHT22;6804;48.774;9.174;2023-04-06T16:06:39;14.90;55.00
13464;DHT22;6804;48.774;9.174;2023-04-06T16:09:08;15.00;55.70